createdAt,value
2022-08-03T00:00:29.862Z,18.70
2022-08-03T00:02:57.282Z,18.70
2022-08-03T00:05:24.549Z,18.70
2022-08-03T00:07:51.716Z,18.70
2022-08-03T00:10:20.258Z,18.60
2022-08-03T00:12:47.430Z,18.60
2022-08-03T00:15:16.719Z,18.60
2022-08-03T00:17:52.741Z,18.60
2022-08-03T00:20:21.736Z,18.60
2022-08-03T00:22:49.561Z,18.50
2022-08-03T00:25:16.807Z,18.50
2022-08-03T00:27:43.978Z,18.50
2022-08-03T00:30:11.626Z,18.50
2022-08-03T00:32:44.321Z,18.50
2022-08-03T00:35:28.061Z,18.40
2022-08-03T00:37:59.840Z,18.40
2022-08-03T00:40:27.136Z,18.40
2022-08-03T00:42:58.800Z,18.40
2022-08-03T00:45:27.968Z,18.30
2022-08-03T00:47:55.367Z,18.40
2022-08-03T00:50:24.377Z,18.30
2022-08-03T00:52:56.220Z,18.30
2022-08-03T00:55:23.720Z,18.30
2022-08-03T00:57:51.197Z,18.30
2022-08-03T01:00:23.253Z,18.30
2022-08-03T01:02:50.687Z,18.30
2022-08-03T01:05:17.902Z,18.30
2022-08-03T01:08:03.975Z,18.20
2022-08-03T01:10:46.692Z,18.20
2022-08-03T01:14:04.751Z,18.20
2022-08-03T01:16:48.178Z,18.20
2022-08-03T01:19:37.138Z,18.20
2022-08-03T01:22:18.236Z,18.10
2022-08-03T01:25:07.385Z,18.10
2022-08-03T01:27:57.297Z,18.10
2022-08-03T01:30:27.364Z,18.00
2022-08-03T01:33:02.254Z,18.00
2022-08-03T01:35:38.259Z,18.00
2022-08-03T01:38:27.250Z,17.90
2022-08-03T01:40:54.743Z,17.90
2022-08-03T01:44:27.548Z,17.90
2022-08-03T01:46:15.715Z,17.80
2022-08-03T01:48:43.329Z,17.80
2022-08-03T01:51:10.785Z,17.80
2022-08-03T01:53:38.929Z,17.80
2022-08-03T01:56:06.132Z,17.80
2022-08-03T01:58:34.440Z,17.80
2022-08-03T02:01:02.182Z,17.70
2022-08-03T02:03:29.551Z,17.70
2022-08-03T02:06:17.905Z,17.70
2022-08-03T02:08:45.021Z,17.70
2022-08-03T02:11:12.311Z,17.70
2022-08-03T02:13:39.517Z,17.60
2022-08-03T02:16:06.868Z,17.60
2022-08-03T02:18:34.246Z,17.60
2022-08-03T02:21:02.406Z,17.50
2022-08-03T02:23:38.290Z,17.50
2022-08-03T02:26:06.939Z,17.50
2022-08-03T02:28:38.443Z,17.50
2022-08-03T02:31:07.385Z,17.50
2022-08-03T02:33:37.828Z,17.40
2022-08-03T02:36:05.486Z,17.40
2022-08-03T02:38:34.944Z,17.40
2022-08-03T02:41:05.099Z,17.30
2022-08-03T02:43:41.248Z,17.30
2022-08-03T02:46:20.714Z,17.30
2022-08-03T02:48:49.822Z,17.30
2022-08-03T02:51:17.268Z,17.30
2022-08-03T02:53:45.099Z,17.20
2022-08-03T02:56:12.803Z,17.20
2022-08-03T02:58:40.797Z,17.20
2022-08-03T03:01:08.010Z,17.20
2022-08-03T03:03:39.951Z,17.10
2022-08-03T03:06:12.127Z,17.10
2022-08-03T03:08:39.594Z,17.10
2022-08-03T03:11:06.763Z,17.10
2022-08-03T03:13:33.941Z,17.00
2022-08-03T03:16:01.923Z,17.00
2022-08-03T03:18:29.230Z,17.00
2022-08-03T03:20:56.418Z,17.00
2022-08-03T03:23:23.782Z,17.00
2022-08-03T03:25:51.327Z,16.90
2022-08-03T03:28:18.607Z,16.90
2022-08-03T03:30:52.629Z,16.90
2022-08-03T03:33:21.610Z,16.80
2022-08-03T03:35:48.943Z,16.80
2022-08-03T03:38:16.122Z,16.80
2022-08-03T03:40:43.409Z,16.80
2022-08-03T03:43:11.397Z,16.80
2022-08-03T03:45:40.684Z,16.80
2022-08-03T03:48:07.972Z,16.70
2022-08-03T03:50:35.770Z,16.70
2022-08-03T03:53:03.533Z,16.70
2022-08-03T03:55:31.006Z,16.70
2022-08-03T03:57:58.233Z,16.70
2022-08-03T04:00:25.425Z,16.70
2022-08-03T04:02:52.943Z,16.70
2022-08-03T04:05:40.912Z,16.60
2022-08-03T04:08:32.307Z,16.60
2022-08-03T04:11:15.438Z,16.60
2022-08-03T04:13:53.194Z,16.60
2022-08-03T04:16:22.624Z,16.60
2022-08-03T04:18:55.461Z,16.60
2022-08-03T04:21:23.491Z,16.50
2022-08-03T04:23:53.455Z,16.50
2022-08-03T04:26:21.481Z,16.50
2022-08-03T04:28:50.349Z,16.50
2022-08-03T04:31:18.273Z,16.50
2022-08-03T04:33:45.455Z,16.50
2022-08-03T04:36:14.901Z,16.50
2022-08-03T04:39:08.418Z,16.50
2022-08-03T04:42:17.081Z,16.50
2022-08-03T04:44:23.794Z,16.50
2022-08-03T04:46:56.545Z,16.60
2022-08-03T04:49:24.115Z,16.60
2022-08-03T04:51:51.417Z,16.60
2022-08-03T04:54:18.608Z,16.60
2022-08-03T04:56:45.787Z,16.60
2022-08-03T04:59:13.090Z,16.60
2022-08-03T05:01:41.444Z,16.70
2022-08-03T05:04:08.713Z,16.70
2022-08-03T05:06:35.990Z,16.70
2022-08-03T05:09:08.624Z,16.80
2022-08-03T05:11:35.795Z,16.80
2022-08-03T05:14:02.969Z,16.90
2022-08-03T05:16:30.318Z,16.90
2022-08-03T05:18:57.498Z,17.00
2022-08-03T05:21:24.709Z,17.10
2022-08-03T05:24:08.805Z,17.20
2022-08-03T05:26:36.022Z,17.50
2022-08-03T05:29:03.225Z,17.80
2022-08-03T05:31:30.393Z,18.00
2022-08-03T05:33:57.648Z,18.10
2022-08-03T05:36:24.873Z,18.30
2022-08-03T05:38:52.050Z,18.50
2022-08-03T05:41:22.581Z,18.60
2022-08-03T05:43:52.352Z,18.70
2022-08-03T05:46:20.546Z,18.70
2022-08-03T05:48:47.709Z,18.70
2022-08-03T05:51:14.872Z,18.70
2022-08-03T05:53:42.579Z,18.80
2022-08-03T05:56:14.261Z,18.80
2022-08-03T05:58:48.731Z,18.80
2022-08-03T06:01:16.678Z,18.90
2022-08-03T06:03:44.853Z,18.90
2022-08-03T06:06:12.178Z,18.90
2022-08-03T06:08:40.335Z,19.00
2022-08-03T06:11:07.786Z,19.00
2022-08-03T06:13:35.063Z,19.00
2022-08-03T06:16:02.295Z,19.10
2022-08-03T06:18:29.616Z,19.20
2022-08-03T06:20:56.909Z,19.30
2022-08-03T06:23:54.076Z,19.50
2022-08-03T06:26:13.402Z,19.60
2022-08-03T06:28:53.081Z,19.70
2022-08-03T06:31:24.271Z,19.80
2022-08-03T06:34:34.644Z,19.90
2022-08-03T06:36:39.192Z,20.10
2022-08-03T06:39:06.397Z,20.20
2022-08-03T06:41:38.101Z,20.30
2022-08-03T06:44:12.565Z,20.50
2022-08-03T06:46:39.918Z,20.60
2022-08-03T06:49:07.779Z,20.60
2022-08-03T06:52:05.090Z,20.90
2022-08-03T06:54:22.300Z,21.00
2022-08-03T06:56:49.627Z,21.30
2022-08-03T07:00:09.093Z,21.40
2022-08-03T07:02:04.240Z,21.60
2022-08-03T07:04:31.402Z,21.70
2022-08-03T07:06:58.653Z,21.80
2022-08-03T07:09:26.684Z,21.90
2022-08-03T07:11:54.983Z,21.90
2022-08-03T07:14:22.318Z,22.00
2022-08-03T07:16:49.537Z,22.10
2022-08-03T07:19:16.775Z,22.30
2022-08-03T07:21:43.960Z,22.40
2022-08-03T07:24:11.191Z,22.60
2022-08-03T07:26:38.363Z,22.70
2022-08-03T07:29:08.744Z,22.80
2022-08-03T07:31:42.442Z,22.80
2022-08-03T07:34:09.645Z,22.90
2022-08-03T07:36:36.930Z,23.00
2022-08-03T07:39:15.978Z,23.10
2022-08-03T07:41:45.912Z,23.30
2022-08-03T07:44:13.248Z,23.40
2022-08-03T07:46:40.427Z,23.50
2022-08-03T07:49:07.625Z,23.70
2022-08-03T07:51:35.192Z,23.70
2022-08-03T07:54:02.441Z,23.90
2022-08-03T07:56:30.189Z,24.00
2022-08-03T07:58:57.545Z,24.00
2022-08-03T08:01:24.883Z,24.20
2022-08-03T08:03:53.031Z,24.20
2022-08-03T08:06:21.280Z,24.30
2022-08-03T08:08:48.481Z,24.30
2022-08-03T08:11:15.738Z,24.40
2022-08-03T08:13:42.939Z,24.40
2022-08-03T08:16:10.131Z,24.40
2022-08-03T08:18:37.322Z,24.50
2022-08-03T08:21:04.502Z,24.60
2022-08-03T08:23:43.682Z,24.80
2022-08-03T08:26:13.515Z,24.90
2022-08-03T08:28:40.727Z,24.90
2022-08-03T08:31:11.235Z,25.10
2022-08-03T08:36:25.933Z,25.40
2022-08-03T08:38:53.339Z,25.50
2022-08-03T08:41:20.629Z,25.60
2022-08-03T08:43:47.819Z,25.60
2022-08-03T08:46:22.810Z,25.70
2022-08-03T08:48:51.678Z,25.70
2022-08-03T08:51:19.829Z,25.80
2022-08-03T08:53:49.683Z,25.90
2022-08-03T08:56:16.943Z,26.00
2022-08-03T08:59:02.798Z,26.10
2022-08-03T09:01:30.927Z,26.30
2022-08-03T09:03:58.270Z,26.30
2022-08-03T09:06:25.479Z,26.30
2022-08-03T09:08:52.682Z,26.30
2022-08-03T09:11:53.193Z,26.30
2022-08-03T09:14:11.285Z,26.40
2022-08-03T09:17:02.357Z,26.50
2022-08-03T09:19:33.253Z,26.60
2022-08-03T09:22:16.568Z,26.60
2022-08-03T09:25:22.750Z,26.70
2022-08-03T09:27:47.296Z,26.80
2022-08-03T09:30:33.081Z,26.90
2022-08-03T09:33:05.284Z,26.90
2022-08-03T09:35:53.146Z,27.00
2022-08-03T09:38:26.572Z,27.00
2022-08-03T09:40:59.165Z,27.00
2022-08-03T09:43:27.898Z,27.10
2022-08-03T09:46:05.033Z,27.10
2022-08-03T09:48:34.928Z,27.20
2022-08-03T09:51:12.809Z,27.20
2022-08-03T09:53:58.904Z,27.20
2022-08-03T09:56:46.899Z,27.20
2022-08-03T09:59:23.338Z,27.20
2022-08-03T10:01:50.730Z,27.30
2022-08-03T10:04:20.709Z,27.40
2022-08-03T10:07:15.010Z,27.50
2022-08-03T10:10:30.054Z,27.60
2022-08-03T10:12:51.838Z,27.60
2022-08-03T10:16:21.817Z,27.50
2022-08-03T10:18:09.206Z,27.50
2022-08-03T10:21:01.427Z,27.60
2022-08-03T10:23:33.415Z,27.70
2022-08-03T10:26:03.246Z,27.80
2022-08-03T10:28:44.540Z,27.80
2022-08-03T10:31:23.366Z,27.90
2022-08-03T10:33:56.147Z,28.00
2022-08-03T10:36:24.347Z,28.00
2022-08-03T10:38:56.690Z,28.10
2022-08-03T10:41:26.331Z,28.20
2022-08-03T10:44:04.725Z,28.20
2022-08-03T10:46:32.699Z,28.10
2022-08-03T10:49:03.318Z,28.10
2022-08-03T10:51:32.237Z,28.10
2022-08-03T10:54:01.809Z,28.20
2022-08-03T10:56:51.169Z,28.40
2022-08-03T10:59:27.976Z,28.60
2022-08-03T11:02:00.876Z,28.60
2022-08-03T11:04:29.575Z,28.60
2022-08-03T11:07:16.131Z,28.70
2022-08-03T11:09:54.083Z,28.80
2022-08-03T11:12:31.203Z,28.80
2022-08-03T11:15:01.617Z,28.80
2022-08-03T11:17:29.204Z,28.80
2022-08-03T11:19:57.539Z,28.70
2022-08-03T11:22:25.832Z,28.70
2022-08-03T11:24:57.325Z,28.80
2022-08-03T11:27:29.147Z,28.90
2022-08-03T11:29:59.767Z,29.00
2022-08-03T11:32:40.153Z,29.00
2022-08-03T11:35:35.363Z,29.00
2022-08-03T11:38:04.837Z,29.00
2022-08-03T11:40:43.974Z,29.00
2022-08-03T11:43:25.748Z,29.00
2022-08-03T11:46:28.488Z,29.10
2022-08-03T11:49:10.025Z,29.20
2022-08-03T11:51:39.814Z,29.50
2022-08-03T11:54:07.237Z,29.60
2022-08-03T11:56:50.247Z,29.60
2022-08-03T11:59:21.887Z,29.60
2022-08-03T12:01:51.497Z,29.60
2022-08-03T12:04:19.800Z,29.70
2022-08-03T12:07:00.589Z,29.70
2022-08-03T12:09:28.001Z,29.80
2022-08-03T12:12:00.934Z,29.80
2022-08-03T12:14:48.492Z,29.80
2022-08-03T12:17:17.276Z,29.80
2022-08-03T12:19:44.860Z,29.80
2022-08-03T12:22:12.049Z,29.80
2022-08-03T12:24:42.786Z,29.80
2022-08-03T12:27:10.039Z,29.80
2022-08-03T12:29:37.205Z,29.80
2022-08-03T12:32:04.626Z,29.80
2022-08-03T12:34:50.581Z,29.90
2022-08-03T12:37:22.628Z,29.90
2022-08-03T12:40:08.004Z,30.00
2022-08-03T12:42:38.913Z,30.20
2022-08-03T12:45:26.547Z,30.30
2022-08-03T12:47:58.171Z,30.30
2022-08-03T12:50:28.074Z,30.30
2022-08-03T12:52:55.951Z,30.40
2022-08-03T12:55:23.611Z,30.50
2022-08-03T12:57:50.939Z,30.50
2022-08-03T13:00:29.061Z,30.50
2022-08-03T13:03:26.734Z,30.50
2022-08-03T13:05:47.458Z,30.40
2022-08-03T13:08:22.287Z,30.40
2022-08-03T13:10:49.527Z,30.50
2022-08-03T13:13:16.820Z,30.50
2022-08-03T13:15:48.022Z,30.60
2022-08-03T13:18:17.327Z,30.70
2022-08-03T13:20:44.830Z,30.60
2022-08-03T13:23:21.951Z,30.60
2022-08-03T13:25:55.953Z,30.60
2022-08-03T13:28:23.440Z,30.60
2022-08-03T13:30:50.611Z,30.60
2022-08-03T13:33:18.034Z,30.70
2022-08-03T13:35:45.451Z,30.80
2022-08-03T13:38:12.697Z,30.90
2022-08-03T13:40:42.640Z,30.80
2022-08-03T13:43:13.491Z,30.80
2022-08-03T13:45:40.837Z,30.80
2022-08-03T13:48:08.272Z,30.90
2022-08-03T13:50:39.797Z,30.90
2022-08-03T13:53:09.942Z,30.70
2022-08-03T13:55:37.350Z,30.70
2022-08-03T13:58:07.478Z,30.70
2022-08-03T14:00:34.917Z,30.70
2022-08-03T14:03:17.582Z,30.70
2022-08-03T14:05:45.095Z,30.70
2022-08-03T14:08:12.628Z,30.90
2022-08-03T14:10:41.619Z,31.00
2022-08-03T14:13:10.000Z,31.00
2022-08-03T14:15:38.686Z,31.00
2022-08-03T14:18:15.364Z,31.10
2022-08-03T14:20:50.330Z,31.10
2022-08-03T14:23:20.305Z,31.10
2022-08-03T14:25:52.411Z,31.10
2022-08-03T14:28:22.360Z,31.10
2022-08-03T14:30:50.693Z,31.00
2022-08-03T14:33:17.932Z,30.90
2022-08-03T14:35:45.182Z,30.90
2022-08-03T14:38:12.357Z,30.90
2022-08-03T14:40:39.598Z,30.90
2022-08-03T14:43:06.833Z,30.90
2022-08-03T14:45:34.375Z,30.80
2022-08-03T14:50:28.638Z,30.70
2022-08-03T14:50:51.756Z,30.60
2022-08-03T14:53:19.709Z,30.60
2022-08-03T14:55:50.813Z,30.50
2022-08-03T14:58:22.812Z,30.50
2022-08-03T15:00:51.239Z,30.40
2022-08-03T15:03:24.405Z,30.40
2022-08-03T15:05:52.842Z,30.40
2022-08-03T15:08:20.449Z,30.40
2022-08-03T15:10:48.430Z,30.30
2022-08-03T15:13:17.262Z,30.30
2022-08-03T15:15:44.510Z,30.20
2022-08-03T15:18:11.959Z,30.20
2022-08-03T15:20:44.919Z,30.10
2022-08-03T15:23:13.757Z,30.10
2022-08-03T15:26:03.664Z,30.00
2022-08-03T15:28:28.285Z,29.90
2022-08-03T15:30:55.456Z,29.90
2022-08-03T15:33:22.621Z,30.00
2022-08-03T15:35:49.922Z,30.00
2022-08-03T15:38:17.547Z,30.00
2022-08-03T15:40:45.230Z,30.00
2022-08-03T15:43:12.491Z,29.90
2022-08-03T15:45:40.614Z,29.90
2022-08-03T15:48:09.369Z,29.90
2022-08-03T15:50:36.732Z,29.80
2022-08-03T15:53:04.390Z,29.70
2022-08-03T15:55:31.940Z,29.70
2022-08-03T15:59:09.608Z,29.70
2022-08-03T16:00:46.713Z,29.60
2022-08-03T16:03:14.053Z,29.60
2022-08-03T16:05:41.411Z,29.60
2022-08-03T16:08:13.502Z,29.60
2022-08-03T16:10:41.277Z,29.50
2022-08-03T16:13:08.794Z,29.50
2022-08-03T16:15:38.396Z,29.40
2022-08-03T16:18:06.814Z,29.40
2022-08-03T16:20:35.305Z,29.40
2022-08-03T16:23:10.470Z,29.30
2022-08-03T16:25:39.374Z,29.30
2022-08-03T16:28:13.518Z,29.30
2022-08-03T16:30:42.638Z,29.20
2022-08-03T16:33:10.239Z,29.10
2022-08-03T16:35:37.653Z,29.10
2022-08-03T16:38:09.588Z,29.00
2022-08-03T16:40:37.368Z,29.10
2022-08-03T16:43:17.828Z,29.10
2022-08-03T16:45:49.272Z,29.10
2022-08-03T16:48:16.868Z,29.00
2022-08-03T16:50:44.609Z,29.00
2022-08-03T16:53:12.809Z,29.10
2022-08-03T16:55:52.392Z,29.00
2022-08-03T16:58:41.815Z,28.90
2022-08-03T17:01:22.230Z,28.90
2022-08-03T17:04:02.444Z,28.90
2022-08-03T17:06:36.456Z,28.90
2022-08-03T17:09:09.891Z,28.90
2022-08-03T17:11:47.337Z,28.80
2022-08-03T17:14:22.012Z,28.80
2022-08-03T17:16:52.762Z,28.80
2022-08-03T17:19:23.301Z,28.70
2022-08-03T17:22:04.786Z,28.70
2022-08-03T17:24:33.838Z,28.70
2022-08-03T17:27:03.039Z,28.60
2022-08-03T17:29:30.311Z,28.50
2022-08-03T17:31:57.547Z,28.50
2022-08-03T17:34:26.495Z,28.40
2022-08-03T17:37:26.911Z,28.40
2022-08-03T17:39:58.101Z,28.30
2022-08-03T17:45:15.613Z,28.10
2022-08-03T17:47:43.837Z,28.10
2022-08-03T17:53:15.195Z,28.00
2022-08-03T17:55:59.623Z,27.90
2022-08-03T17:58:43.555Z,27.90
2022-08-03T18:02:00.478Z,27.90
2022-08-03T18:04:21.706Z,27.70
2022-08-03T18:06:59.288Z,27.70
2022-08-03T18:10:03.698Z,27.60
2022-08-03T18:12:26.261Z,27.60
2022-08-03T18:15:01.318Z,27.50
2022-08-03T18:17:54.564Z,27.40
2022-08-03T18:20:34.658Z,27.30
2022-08-03T18:23:09.473Z,27.20
2022-08-03T18:25:44.873Z,27.10
2022-08-03T18:28:13.937Z,27.10
2022-08-03T18:34:18.465Z,27.00
2022-08-03T18:36:29.470Z,26.90
2022-08-03T18:38:59.497Z,26.90
2022-08-03T18:41:32.886Z,26.80
2022-08-03T18:44:08.221Z,26.80
2022-08-03T18:47:16.745Z,26.70
2022-08-03T18:49:48.342Z,26.60
2022-08-03T18:52:27.701Z,26.50
2022-08-03T18:55:21.082Z,26.50
2022-08-03T19:01:15.435Z,26.40
2022-08-03T19:03:58.590Z,26.30
2022-08-03T19:06:27.156Z,26.20
2022-08-03T19:09:05.291Z,26.10
2022-08-03T19:12:11.115Z,26.10
2022-08-03T19:14:31.201Z,26.00
2022-08-03T19:17:13.986Z,25.90
2022-08-03T19:19:45.035Z,25.90
2022-08-03T19:22:16.002Z,25.80
2022-08-03T19:24:44.273Z,25.80
2022-08-03T19:27:11.851Z,25.70
2022-08-03T19:29:58.648Z,25.70
2022-08-03T19:32:31.038Z,25.60
2022-08-03T19:34:59.814Z,25.50
2022-08-03T19:37:38.304Z,25.40
2022-08-03T19:40:10.211Z,25.40
2022-08-03T19:42:38.228Z,25.40
2022-08-03T19:45:13.812Z,25.30
2022-08-03T19:47:46.175Z,25.30
2022-08-03T19:50:14.365Z,25.20
2022-08-03T19:52:43.742Z,25.10
2022-08-03T19:55:12.187Z,25.10
2022-08-03T19:57:41.986Z,25.10
2022-08-03T20:00:11.728Z,25.00
2022-08-03T20:02:39.842Z,25.00
2022-08-03T20:05:14.817Z,24.90
2022-08-03T20:07:47.596Z,24.90
2022-08-03T20:10:16.721Z,24.80
2022-08-03T20:12:44.683Z,24.70
2022-08-03T20:15:12.102Z,24.70
2022-08-03T20:17:54.332Z,24.60
2022-08-03T20:20:34.959Z,24.60
2022-08-03T20:23:07.627Z,24.50
2022-08-03T20:25:48.951Z,24.50
2022-08-03T20:28:29.323Z,24.50
2022-08-03T20:30:56.967Z,24.50
2022-08-03T20:36:11.388Z,24.30
2022-08-03T20:38:43.792Z,24.30
2022-08-03T20:41:15.700Z,24.30
2022-08-03T20:43:43.047Z,24.20
2022-08-03T20:46:31.756Z,24.20
2022-08-03T20:48:58.785Z,24.20
2022-08-03T20:51:49.015Z,24.10
2022-08-03T20:54:22.564Z,24.10
2022-08-03T20:56:58.153Z,24.10
2022-08-03T20:59:50.627Z,24.00
2022-08-03T21:02:30.071Z,24.00
2022-08-03T21:05:03.537Z,23.90
2022-08-03T21:08:05.464Z,23.90
2022-08-03T21:10:35.856Z,23.90
2022-08-03T21:12:54.738Z,28.20
2022-08-03T21:12:55.448Z,28.00
2022-08-03T21:13:05.550Z,27.00
2022-08-03T21:13:07.168Z,24.40
2022-08-03T21:13:10.024Z,26.40
2022-08-03T21:16:06.140Z,23.80
2022-08-03T21:18:48.845Z,23.70
2022-08-03T21:21:19.034Z,23.70
2022-08-03T21:23:49.846Z,23.70
2022-08-03T21:26:18.808Z,23.60
2022-08-03T21:28:47.479Z,23.60
2022-08-03T21:31:25.328Z,23.60
2022-08-03T21:33:57.868Z,23.60
2022-08-03T21:36:27.030Z,23.50
2022-08-03T21:38:56.356Z,23.50
2022-08-03T21:41:25.363Z,23.50
2022-08-03T21:43:52.573Z,23.40
2022-08-03T21:46:19.976Z,23.50
2022-08-03T21:48:48.235Z,23.40
2022-08-03T21:51:16.275Z,23.40
2022-08-03T21:54:04.063Z,23.40
2022-08-03T21:56:35.016Z,23.40
2022-08-03T21:59:07.642Z,23.30
2022-08-03T22:01:35.819Z,23.30
2022-08-03T22:04:07.350Z,23.30
2022-08-03T22:06:36.962Z,23.30
2022-08-03T22:09:05.846Z,23.20
2022-08-03T22:11:34.799Z,23.10
2022-08-03T22:14:02.025Z,23.10
2022-08-03T22:16:29.635Z,23.10
2022-08-03T22:18:56.822Z,23.00
2022-08-03T22:21:36.367Z,23.00
2022-08-03T22:24:04.998Z,23.00
2022-08-03T22:26:35.450Z,23.00
2022-08-03T22:29:08.356Z,23.00
2022-08-03T22:31:58.422Z,22.90
2022-08-03T22:34:26.556Z,22.90
2022-08-03T22:36:57.237Z,22.90
2022-08-03T22:39:28.655Z,22.90
2022-08-03T22:41:59.262Z,22.80
2022-08-03T22:44:27.155Z,22.80
2022-08-03T22:46:54.378Z,22.80
2022-08-03T22:49:21.624Z,22.70
2022-08-03T22:51:50.255Z,22.80
2022-08-03T22:54:17.598Z,22.70
2022-08-03T22:56:46.123Z,22.70
2022-08-03T22:59:39.990Z,22.70
2022-08-03T23:02:02.511Z,22.70
2022-08-03T23:04:56.022Z,22.70
2022-08-03T23:07:50.427Z,22.60
2022-08-03T23:10:18.024Z,22.60
2022-08-03T23:12:48.121Z,22.60
2022-08-03T23:15:15.499Z,22.60
2022-08-03T23:17:58.225Z,22.50
2022-08-03T23:20:26.471Z,22.50
2022-08-03T23:22:54.575Z,22.50
2022-08-03T23:25:21.945Z,22.50
2022-08-03T23:28:05.511Z,22.50
2022-08-03T23:30:34.656Z,22.40
2022-08-03T23:33:01.880Z,22.40
2022-08-03T23:36:29.898Z,22.40
2022-08-03T23:38:35.604Z,22.30
2022-08-03T23:41:03.661Z,22.30
2022-08-03T23:43:51.783Z,22.30
2022-08-03T23:46:24.328Z,22.30
2022-08-03T23:48:51.542Z,22.20
2022-08-03T23:51:26.891Z,22.20
2022-08-03T23:54:10.322Z,22.20
2022-08-03T23:57:06.915Z,22.10
2022-08-03T23:59:52.734Z,22.10
